Time;durP1;ratioP1;P1;durP2;ratioP2;P2;SDS_P1;SDS_P2;PMS_P1;PMS_P2;Temp;Humidity;BMP_temperature;BMP_pressure;BME280_temperature;BME280_humidity;BME280_pressure;Samples;Min_cycle;Max_cycle;Signal;HPM_P1;HPM_P2
2023/08/23 00:01:58;;;;;;;4.13;3.25;;;21.20;99.90;;;21.21;100.00;97565.53;5034378;28;20021;-37
2023/08/23 00:04:23;;;;;;;5.35;3.03;;;21.20;99.90;;;21.21;100.00;97556.59;5032707;28;20087;-37
2023/08/23 00:06:49;;;;;;;3.83;2.75;;;21.20;99.90;;;21.10;100.00;97541.34;5032534;28;20052;-36
2023/08/23 00:09:16;;;;;;;4.05;3.30;;;21.10;99.90;;;21.16;100.00;97562.34;5039295;28;20032;-36
2023/08/23 00:11:45;;;;;;;6.35;3.30;;;21.10;99.90;;;21.09;100.00;97547.69;5038817;28;20087;-36
2023/08/23 00:14:11;;;;;;;5.93;3.42;;;21.10;99.90;;;21.14;100.00;97546.34;5037244;28;20409;-36
2023/08/23 00:16:36;;;;;;;7.95;3.15;;;21.10;99.90;;;21.14;100.00;97534.78;5035073;28;20520;-36
2023/08/23 00:19:03;;;;;;;6.07;3.60;;;21.10;99.90;;;21.17;100.00;97532.72;5040013;28;20032;-36
2023/08/23 00:21:28;;;;;;;3.70;3.30;;;21.10;99.90;;;21.20;100.00;97544.19;5042028;28;20025;-36
2023/08/23 00:23:55;;;;;;;4.45;3.25;;;21.10;99.90;;;21.12;100.00;97532.22;5040542;28;20059;-36
2023/08/23 00:26:21;;;;;;;5.35;3.72;;;21.10;99.90;;;21.15;100.00;97541.84;5042664;28;20021;-36
2023/08/23 00:28:46;;;;;;;4.60;3.88;;;21.10;99.90;;;21.09;100.00;97537.81;5039201;28;20039;-36
2023/08/23 00:31:12;;;;;;;3.70;3.30;;;21.10;99.90;;;21.06;100.00;97539.88;5040370;28;20408;-36
2023/08/23 00:33:38;;;;;;;5.93;3.25;;;21.00;99.90;;;21.02;100.00;97541.09;5036554;28;20047;-36
2023/08/23 00:36:04;;;;;;;3.92;3.30;;;21.00;99.90;;;20.95;100.00;97541.56;5038312;28;20484;-36
2023/08/23 00:38:29;;;;;;;5.30;3.58;;;20.90;99.90;;;20.91;100.00;97540.09;5038393;28;20037;-36
2023/08/23 00:40:55;;;;;;;4.63;3.33;;;20.90;99.90;;;20.86;100.00;97544.09;5037870;28;21224;-36
2023/08/23 00:43:21;;;;;;;5.53;3.58;;;20.80;99.90;;;20.83;100.00;97536.28;5039032;28;20128;-36
2023/08/23 00:45:46;;;;;;;4.68;3.67;;;20.80;99.90;;;20.74;100.00;97521.75;5038292;28;20025;-36
2023/08/23 00:48:13;;;;;;;9.00;4.00;;;20.80;99.90;;;20.73;100.00;97531.63;5041991;28;20035;-36
2023/08/23 00:50:41;;;;;;;5.35;3.67;;;20.70;99.90;;;20.68;100.00;97533.81;5042155;28;20449;-36
2023/08/23 00:53:08;;;;;;;4.95;3.60;;;20.70;99.90;;;20.66;100.00;97529.53;5035862;28;20028;-36
2023/08/23 00:55:35;;;;;;;5.18;3.63;;;20.70;99.90;;;20.62;100.00;97526.25;5040006;28;20037;-36
2023/08/23 00:58:02;;;;;;;4.78;3.70;;;20.60;99.90;;;20.58;100.00;97522.91;5039732;28;20045;-36
2023/08/23 01:00:28;;;;;;;5.57;3.50;;;20.60;99.90;;;20.57;100.00;97523.88;5037628;28;20034;-36
2023/08/23 01:02:54;;;;;;;4.35;3.15;;;20.50;99.90;;;20.51;100.00;97520.78;5039224;28;20112;-36
2023/08/23 01:05:39;;;;;;;5.57;3.60;;;20.50;99.90;;;20.48;100.00;97518.38;5039946;28;20504;-36
2023/08/23 01:08:22;;;;;;;4.47;3.83;;;20.40;99.90;;;20.46;100.00;97521.16;5039212;28;20696;-36
2023/08/23 01:11:02;;;;;;;6.07;3.72;;;20.40;99.90;;;20.35;100.00;97516.59;5040378;28;20480;-36
2023/08/23 01:13:38;;;;;;;7.10;3.92;;;20.40;99.90;;;20.40;100.00;97529.63;5041084;28;20029;-36
2023/08/23 01:16:09;;;;;;;7.50;4.00;;;20.40;99.90;;;20.36;100.00;97534.38;5036865;28;20074;-36
2023/08/23 01:18:36;;;;;;;5.85;4.30;;;20.30;99.90;;;20.32;100.00;97530.22;5039982;28;20037;-36
2023/08/23 01:21:06;;;;;;;8.25;4.32;;;20.30;99.90;;;20.26;100.00;97533.38;5037766;28;20608;-36
2023/08/23 01:23:33;;;;;;;5.78;4.38;;;20.30;99.90;;;20.23;100.00;97544.28;5039805;28;20452;-36
2023/08/23 01:25:58;;;;;;;5.38;4.18;;;20.20;99.90;;;20.17;100.00;97526.88;5041041;28;20111;-36
2023/08/23 01:28:24;;;;;;;5.53;3.95;;;20.20;99.90;;;20.23;100.00;97533.56;5035425;28;20033;-36
2023/08/23 01:30:51;;;;;;;5.45;4.47;;;20.20;99.90;;;20.21;100.00;97540.88;5040894;28;20090;-36
2023/08/23 01:33:31;;;;;;;5.65;3.75;;;20.20;99.90;;;20.20;100.00;97539.16;5039677;28;20086;-36
2023/08/23 01:36:07;;;;;;;8.20;4.28;;;20.20;99.90;;;20.17;100.00;97547.41;5039780;28;20039;-36
2023/08/23 01:38:34;;;;;;;5.63;4.57;;;20.20;99.90;;;20.08;100.00;97530.22;5036348;28;20126;-36
2023/08/23 01:41:00;;;;;;;7.55;4.40;;;20.20;99.90;;;20.12;100.00;97531.69;5034505;28;20022;-36
2023/08/23 01:43:26;;;;;;;5.03;3.97;;;20.10;99.90;;;20.14;100.00;97539.63;5042120;28;20024;-36
2023/08/23 01:45:52;;;;;;;9.20;4.22;;;20.20;99.90;;;20.10;100.00;97541.66;5037653;28;20037;-36
2023/08/23 01:48:17;;;;;;;5.82;4.70;;;20.10;99.90;;;20.05;100.00;97545.66;5033256;28;20516;-36
2023/08/23 01:50:43;;;;;;;6.10;4.50;;;20.10;99.90;;;20.03;100.00;97543.09;5041645;28;20115;-36
2023/08/23 01:53:09;;;;;;;7.65;4.53;;;20.00;99.90;;;20.01;100.00;97545.88;5039091;28;20028;-36
2023/08/23 01:55:35;;;;;;;7.32;4.60;;;20.00;99.90;;;20.01;100.00;97540.53;5035230;28;20036;-36
2023/08/23 01:58:00;;;;;;;9.07;4.53;;;20.00;99.90;;;19.98;100.00;97539.88;5034985;28;20063;-36
2023/08/23 02:00:26;;;;;;;5.00;4.45;;;20.00;99.90;;;19.95;100.00;97540.94;5029768;28;20367;-37
2023/08/23 02:02:52;;;;;;;5.88;4.60;;;20.00;99.90;;;19.92;100.00;97537.63;5039603;28;20052;-35
2023/08/23 02:05:17;;;;;;;7.80;4.25;;;20.00;99.90;;;19.90;100.00;97542.25;5043385;28;20028;-35
2023/08/23 02:07:43;;;;;;;9.13;4.35;;;19.90;99.90;;;19.91;100.00;97541.31;5038557;28;20060;-35
2023/08/23 02:10:09;;;;;;;6.25;4.32;;;19.90;99.90;;;19.88;100.00;97530.81;5037107;28;20085;-36
2023/08/23 02:12:35;;;;;;;8.98;4.45;;;19.90;99.90;;;19.75;100.00;97510.28;5040963;28;20132;-35
2023/08/23 02:15:01;;;;;;;5.35;4.32;;;19.90;99.90;;;19.82;100.00;97535.63;5038787;28;20041;-36
2023/08/23 02:17:26;;;;;;;5.55;4.65;;;19.80;99.90;;;19.83;100.00;97540.03;5022061;28;20036;-35
2023/08/23 02:19:52;;;;;;;7.05;4.07;;;19.90;99.90;;;19.80;100.00;97531.38;5037248;28;20091;-35
2023/08/23 02:22:18;;;;;;;4.93;4.43;;;19.80;99.90;;;19.82;100.00;97540.13;5035268;28;20029;-36
2023/08/23 02:24:43;;;;;;;6.88;4.78;;;19.90;99.90;;;19.81;100.00;97538.41;5035012;28;20396;-35
2023/08/23 02:27:09;;;;;;;6.18;4.30;;;19.80;99.90;;;19.81;100.00;97536.63;5036025;28;20028;-35
2023/08/23 02:29:35;;;;;;;4.70;3.97;;;19.80;99.90;;;19.78;100.00;97527.97;5038292;28;20029;-35
2023/08/23 02:32:00;;;;;;;4.97;4.43;;;19.80;99.90;;;19.77;100.00;97526.22;5039251;28;20043;-35
2023/08/23 02:34:26;;;;;;;6.38;4.50;;;19.80;99.90;;;19.71;100.00;97530.19;5035244;28;20424;-35
2023/08/23 02:36:52;;;;;;;5.93;4.55;;;19.70;99.90;;;19.71;100.00;97532.00;5038623;28;20025;-36
2023/08/23 02:39:18;;;;;;;6.47;4.70;;;19.70;99.90;;;19.69;100.00;97534.78;5035503;28;20485;-35
2023/08/23 02:41:44;;;;;;;5.25;4.20;;;19.70;99.90;;;19.68;100.00;97532.22;5036086;28;20420;-35
2023/08/23 02:44:10;;;;;;;5.30;4.32;;;19.70;99.90;;;19.67;100.00;97527.81;5038759;28;20025;-35
2023/08/23 02:46:35;;;;;;;5.65;4.25;;;19.70;99.90;;;19.63;100.00;97528.06;5037275;28;20086;-35
2023/08/23 02:49:01;;;;;;;5.38;4.00;;;19.70;99.90;;;19.63;100.00;97528.06;5039092;28;20039;-35
2023/08/23 02:51:27;;;;;;;6.03;4.10;;;19.60;99.90;;;19.63;100.00;97527.19;5035519;28;20425;-36
2023/08/23 02:53:52;;;;;;;5.70;4.10;;;19.60;99.90;;;19.61;100.00;97530.00;5029471;28;20032;-35
2023/08/23 02:56:18;;;;;;;4.30;3.90;;;19.60;99.90;;;19.59;100.00;97523.03;5034381;28;20094;-36
2023/08/23 02:58:44;;;;;;;6.43;4.50;;;19.60;99.90;;;19.51;100.00;97502.19;5035679;28;20041;-35
2023/08/23 03:01:10;;;;;;;7.30;4.53;;;19.60;99.90;;;19.53;100.00;97515.47;5036740;28;20048;-35
2023/08/23 03:03:35;;;;;;;6.30;4.57;;;19.60;99.90;;;19.52;100.00;97513.72;5035365;28;20414;-35
2023/08/23 03:06:01;;;;;;;6.57;4.82;;;19.50;99.90;;;19.49;100.00;97513.94;5039081;28;20306;-36
2023/08/23 03:08:27;;;;;;;5.10;4.40;;;19.50;99.90;;;19.49;100.00;97506.78;5033297;28;20609;-36
2023/08/23 03:11:04;;;;;;;5.97;4.75;;;19.50;99.90;;;19.48;100.00;97521.13;5032313;28;20044;-36
2023/08/23 03:13:30;;;;;;;5.70;4.50;;;19.50;99.90;;;19.39;100.00;97506.59;5037150;28;20029;-36
2023/08/23 03:15:56;;;;;;;4.88;4.18;;;19.40;99.90;;;19.37;100.00;97499.66;5039321;28;20064;-36
2023/08/23 03:18:22;;;;;;;6.30;5.07;;;19.40;99.90;;;19.38;100.00;97522.72;5034487;28;20458;-36
2023/08/23 03:20:49;;;;;;;7.03;5.05;;;19.40;99.90;;;19.35;100.00;97526.50;5031091;28;20028;-36
2023/08/23 03:23:16;;;;;;;7.93;4.97;;;19.40;99.90;;;19.34;100.00;97535.47;5038218;28;20485;-36
2023/08/23 03:25:48;;;;;;;6.15;4.72;;;19.40;99.90;;;19.36;100.00;97530.88;5034771;28;20500;-36
2023/08/23 03:28:14;;;;;;;9.43;4.57;;;19.40;99.90;;;19.31;100.00;97529.47;5037671;28;20040;-36
2023/08/23 03:30:40;;;;;;;5.15;4.30;;;19.40;99.90;;;19.31;100.00;97540.16;5033452;28;20036;-36
2023/08/23 03:33:06;;;;;;;6.53;5.40;;;19.40;99.90;;;19.27;100.00;97536.84;5033966;28;20390;-36
2023/08/23 03:35:32;;;;;;;8.07;5.13;;;19.30;99.90;;;19.25;100.00;97534.28;5034749;28;20035;-36
2023/08/23 03:37:58;;;;;;;5.63;5.05;;;19.30;99.90;;;19.23;100.00;97538.88;5035629;28;20037;-36
2023/08/23 03:40:23;;;;;;;7.47;4.57;;;19.30;99.90;;;19.21;100.00;97543.50;5033836;28;20030;-36
2023/08/23 03:42:49;;;;;;;5.22;4.38;;;19.30;99.90;;;19.10;100.00;97522.00;5038074;28;20051;-36
2023/08/23 03:45:18;;;;;;;6.07;4.93;;;19.20;99.90;;;19.17;100.00;97525.13;5036737;28;20052;-36
2023/08/23 03:47:44;;;;;;;5.95;4.57;;;19.20;99.90;;;19.15;100.00;97519.00;5035847;28;20029;-36
2023/08/23 03:50:11;;;;;;;6.32;4.88;;;19.20;99.90;;;19.14;100.00;97518.16;5033963;28;20032;-36
2023/08/23 03:52:37;;;;;;;6.30;4.93;;;19.20;99.90;;;19.08;100.00;97502.56;5036582;28;20051;-36
2023/08/23 03:55:03;;;;;;;6.95;5.07;;;19.20;99.90;;;19.14;100.00;97511.97;5038183;28;20501;-36
2023/08/23 03:57:29;;;;;;;6.07;4.70;;;19.20;99.90;;;19.14;100.00;97514.63;5037771;28;20043;-36
2023/08/23 03:59:55;;;;;;;7.45;5.00;;;19.20;99.90;;;19.09;100.00;97520.28;5037419;28;20364;-36
2023/08/23 04:02:20;;;;;;;9.82;5.15;;;19.20;99.90;;;19.08;100.00;97513.25;5037405;28;20024;-36
2023/08/23 04:04:46;;;;;;;7.00;5.28;;;19.10;99.90;;;19.07;100.00;97519.53;5032422;28;20382;-36
2023/08/23 04:07:15;;;;;;;8.48;5.35;;;19.10;99.90;;;19.05;100.00;97514.28;5034225;28;21412;-36
2023/08/23 04:09:41;;;;;;;6.88;5.10;;;19.10;99.90;;;19.06;100.00;97517.84;5038481;28;20336;-36
2023/08/23 04:12:08;;;;;;;5.57;4.68;;;19.10;99.90;;;19.03;100.00;97513.56;5032825;28;20409;-36
2023/08/23 04:14:35;;;;;;;6.40;4.50;;;19.10;99.90;;;19.05;100.00;97521.47;5032658;28;20033;-36
2023/08/23 04:17:02;;;;;;;6.95;5.03;;;19.10;99.90;;;18.99;100.00;97513.88;5035699;28;20033;-36
2023/08/23 04:19:27;;;;;;;6.28;5.20;;;19.10;99.90;;;19.03;100.00;97524.25;5031197;28;20036;-36
2023/08/23 04:21:53;;;;;;;6.10;4.72;;;19.10;99.90;;;19.00;100.00;97516.44;5030298;28;20033;-36
2023/08/23 04:24:21;;;;;;;8.35;4.88;;;19.10;99.90;;;19.04;100.00;97512.59;5040413;28;20033;-36
2023/08/23 04:26:47;;;;;;;6.63;4.95;;;19.10;99.90;;;19.05;100.00;97514.28;5039762;28;20492;-38
2023/08/23 04:29:14;;;;;;;6.28;4.70;;;19.10;99.90;;;19.01;100.00;97519.97;5042216;28;20037;-36
2023/08/23 04:31:39;;;;;;;6.15;5.25;;;19.10;99.90;;;19.10;100.00;97526.50;5037992;28;20018;-36
2023/08/23 04:34:05;;;;;;;6.07;4.70;;;19.10;99.90;;;19.09;100.00;97530.97;5040225;28;20512;-36
2023/08/23 04:36:31;;;;;;;5.50;4.65;;;19.10;99.90;;;19.08;100.00;97523.94;5039065;28;20198;-36
2023/08/23 04:38:57;;;;;;;5.65;4.75;;;19.10;99.90;;;19.02;100.00;97522.56;5037275;28;20069;-36
2023/08/23 04:41:23;;;;;;;8.50;4.68;;;19.00;99.90;;;18.96;100.00;97506.06;5040752;28;20032;-36
2023/08/23 04:43:49;;;;;;;6.65;4.80;;;19.10;99.90;;;19.14;100.00;97539.53;5039005;28;20104;-36
2023/08/23 04:46:16;;;;;;;5.60;4.65;;;19.10;99.90;;;19.25;100.00;97538.78;5037693;28;20370;-36
2023/08/23 04:48:42;;;;;;;6.28;5.03;;;19.20;99.90;;;19.31;100.00;97534.81;5039031;28;20087;-36
2023/08/23 04:51:09;;;;;;;6.50;4.50;;;19.30;99.90;;;19.40;100.00;97547.56;5041701;28;20041;-36
2023/08/23 04:53:35;;;;;;;7.38;5.18;;;19.40;99.90;;;19.41;100.00;97531.38;5040331;28;20071;-36
2023/08/23 04:56:01;;;;;;;6.25;4.75;;;19.50;99.90;;;19.55;100.00;97542.94;5035780;28;20040;-36
2023/08/23 04:58:29;;;;;;;8.60;5.30;;;19.50;99.90;;;19.57;100.00;97547.22;5039076;28;20133;-36
2023/08/23 05:00:58;;;;;;;7.75;4.90;;;19.60;99.90;;;19.55;100.00;97530.41;5033628;28;20093;-36
2023/08/23 05:03:27;;;;;;;6.28;4.65;;;19.60;99.90;;;19.61;100.00;97537.16;5040988;28;20525;-36
2023/08/23 05:05:53;;;;;;;6.32;4.85;;;19.60;99.90;;;19.62;100.00;97550.41;5031743;28;20069;-36
2023/08/23 05:08:19;;;;;;;6.75;5.00;;;19.60;99.90;;;19.62;100.00;97542.38;5039230;28;20119;-36
2023/08/23 05:10:44;;;;;;;5.80;4.45;;;19.60;99.90;;;19.67;100.00;97543.88;5039018;28;20056;-36
2023/08/23 05:13:10;;;;;;;6.32;4.88;;;19.70;99.90;;;19.65;100.00;97542.19;5037438;28;20098;-36
2023/08/23 05:15:35;;;;;;;6.50;4.97;;;19.70;99.90;;;19.52;100.00;97522.59;5041447;28;20029;-36
2023/08/23 05:18:01;;;;;;;5.15;4.65;;;19.70;99.90;;;19.69;100.00;97552.66;5041269;28;20458;-36
2023/08/23 05:20:27;;;;;;;5.60;4.32;;;19.70;99.90;;;19.74;100.00;97545.19;5033450;28;20053;-36
2023/08/23 05:22:52;;;;;;;6.25;4.50;;;19.70;99.90;;;19.80;100.00;97544.75;5037185;28;20028;-36
2023/08/23 05:25:18;;;;;;;4.97;4.45;;;19.70;99.90;;;19.89;100.00;97543.22;5038240;28;20033;-36
2023/08/23 05:27:44;;;;;;;6.30;5.00;;;19.80;99.90;;;19.86;100.00;97538.94;5041159;28;20033;-36
2023/08/23 05:30:10;;;;;;;8.15;4.63;;;19.90;99.90;;;19.87;100.00;97532.63;5036327;28;20267;-36
2023/08/23 05:32:36;;;;;;;10.48;4.93;;;19.90;99.90;;;20.00;100.00;97552.19;5038405;28;20481;-36
2023/08/23 05:35:03;;;;;;;6.70;4.50;;;20.00;99.90;;;20.08;100.00;97548.09;5040971;28;20044;-36
2023/08/23 05:37:28;;;;;;;9.70;4.97;;;20.00;99.90;;;20.12;100.00;97552.28;5041448;28;20033;-36
2023/08/23 05:39:54;;;;;;;7.63;4.05;;;20.10;99.90;;;20.18;100.00;97541.09;5037707;28;20067;-36
2023/08/23 05:42:20;;;;;;;5.30;4.40;;;20.10;99.90;;;20.23;100.00;97555.00;5038507;28;20033;-35
2023/08/23 05:44:45;;;;;;;6.10;5.00;;;20.20;99.90;;;20.30;100.00;97544.69;5039570;28;20053;-35
2023/08/23 05:47:11;;;;;;;5.30;4.65;;;20.20;99.90;;;20.33;100.00;97553.38;5039109;28;20060;-35
2023/08/23 05:49:37;;;;;;;6.07;4.82;;;20.30;99.90;;;20.38;100.00;97551.16;5029335;28;20532;-35
2023/08/23 05:52:03;;;;;;;7.55;4.90;;;20.40;99.90;;;20.44;100.00;97563.28;5038742;28;20072;-35
2023/08/23 05:54:31;;;;;;;8.88;4.78;;;20.40;99.90;;;20.50;100.00;97561.97;5037790;28;20037;-36
2023/08/23 05:56:59;;;;;;;6.15;4.60;;;20.50;99.90;;;20.56;100.00;97565.00;5035867;28;20028;-35
2023/08/23 05:59:28;;;;;;;6.78;4.55;;;20.50;99.90;;;20.67;100.00;97564.22;5040348;28;20295;-35
2023/08/23 06:01:54;;;;;;;9.52;4.30;;;20.60;99.90;;;20.70;100.00;97561.34;5039804;28;20037;-36
2023/08/23 06:04:20;;;;;;;6.10;4.80;;;20.70;99.90;;;20.78;100.00;97564.31;5030807;28;20029;-35
2023/08/23 06:06:47;;;;;;;6.75;4.57;;;20.70;99.90;;;20.86;100.00;97561.03;5036288;28;20284;-36
2023/08/23 06:09:13;;;;;;;8.50;4.88;;;20.80;99.90;;;20.92;100.00;97570.41;5039329;28;20021;-36
2023/08/23 06:11:38;;;;;;;7.57;5.10;;;20.90;99.90;;;20.94;100.00;97569.34;5033039;28;20032;-36
2023/08/23 06:14:21;;;;;;;5.57;4.35;;;20.90;99.90;;;20.94;100.00;97552.38;5031984;28;20525;-36
2023/08/23 06:16:49;;;;;;;6.88;3.88;;;21.00;99.90;;;21.07;100.00;97565.72;5034600;28;20106;-36
2023/08/23 06:19:15;;;;;;;4.90;4.40;;;21.00;99.90;;;21.09;100.00;97561.94;5032610;28;20030;-36
2023/08/23 06:21:44;;;;;;;6.35;4.18;;;21.10;99.90;;;21.11;100.00;97562.69;5032058;28;20040;-35
2023/08/23 06:24:10;;;;;;;7.05;4.40;;;21.10;99.90;;;21.20;100.00;97571.84;5037683;28;20028;-36
2023/08/23 06:26:36;;;;;;;6.70;4.45;;;21.20;99.90;;;21.27;100.00;97580.28;5039896;28;20021;-36
2023/08/23 06:29:03;;;;;;;5.70;4.63;;;21.20;99.90;;;21.31;100.00;97566.50;5035418;28;20041;-35
2023/08/23 06:31:29;;;;;;;5.93;5.13;;;21.30;99.90;;;21.34;100.00;97568.94;5035208;28;20423;-36
2023/08/23 06:33:55;;;;;;;7.13;5.18;;;21.30;99.90;;;21.36;100.00;97564.31;5025848;28;20045;-36
2023/08/23 06:36:21;;;;;;;5.78;4.32;;;21.40;99.90;;;21.49;100.00;97576.78;5023652;28;20051;-36
2023/08/23 06:38:47;;;;;;;8.18;4.75;;;21.40;99.90;;;21.55;100.00;97576.28;5033881;28;20420;-36
2023/08/23 06:41:13;;;;;;;8.75;4.68;;;21.50;99.90;;;21.61;100.00;97572.31;5024755;28;20082;-36
2023/08/23 06:43:38;;;;;;;5.88;4.88;;;21.60;99.90;;;21.65;100.00;97563.03;5029620;28;20489;-37
2023/08/23 06:46:04;;;;;;;5.00;4.43;;;21.70;99.90;;;21.71;100.00;97568.75;5029016;28;20036;-36
2023/08/23 06:48:30;;;;;;;5.60;4.85;;;21.70;99.90;;;21.78;100.00;97579.84;5036412;28;20076;-36
2023/08/23 06:50:58;;;;;;;8.07;4.78;;;21.80;99.90;;;21.82;100.00;97575.09;5039204;28;20036;-36
2023/08/23 06:53:24;;;;;;;7.85;4.70;;;21.80;99.90;;;21.87;100.00;97581.78;5035396;28;20032;-36
2023/08/23 06:55:50;;;;;;;6.55;5.00;;;21.80;99.90;;;21.92;100.00;97574.22;5030468;28;20189;-36
2023/08/23 06:58:15;;;;;;;10.52;4.78;;;21.90;99.90;;;22.04;100.00;97576.91;5033524;28;20041;-36
2023/08/23 07:00:41;;;;;;;5.38;4.43;;;22.00;99.90;;;22.13;100.00;97576.16;5038884;28;20066;-36
2023/08/23 07:03:07;;;;;;;5.57;4.57;;;22.10;99.90;;;22.15;100.00;97563.47;5037513;28;20102;-36
2023/08/23 07:05:35;;;;;;;5.22;4.53;;;22.10;99.90;;;22.28;100.00;97574.94;5038276;28;20041;-35
2023/08/23 07:08:02;;;;;;;6.25;4.68;;;22.20;99.90;;;22.35;100.00;97574.44;5026490;28;20155;-36
2023/08/23 07:10:28;;;;;;;6.40;4.15;;;22.30;99.90;;;22.46;100.00;97571.72;5029232;28;20074;-36
2023/08/23 07:12:55;;;;;;;7.32;4.80;;;22.40;99.90;;;22.59;100.00;97572.38;5033881;28;20368;-36
2023/08/23 07:15:21;;;;;;;7.00;5.20;;;22.50;99.90;;;22.67;100.00;97578.00;5036854;28;20037;-36
2023/08/23 07:17:48;;;;;;;6.57;5.18;;;22.60;99.90;;;22.74;100.00;97577.47;5032324;28;20044;-36
2023/08/23 07:20:15;;;;;;;6.72;4.25;;;22.70;99.90;;;22.82;100.00;97577.69;5034631;28;20627;-36
2023/08/23 07:22:41;;;;;;;6.97;4.97;;;22.70;99.90;;;22.85;100.00;97578.28;5029336;28;20033;-36
2023/08/23 07:25:08;;;;;;;8.27;4.70;;;22.80;99.90;;;22.91;100.00;97581.44;5029887;28;20081;-36
2023/08/23 07:27:34;;;;;;;5.18;4.20;;;22.80;99.90;;;23.00;100.00;97576.13;5037357;28;20048;-36
2023/08/23 07:30:00;;;;;;;6.85;4.90;;;22.90;99.90;;;23.06;100.00;97578.34;5021331;28;20024;-36
2023/08/23 07:32:30;;;;;;;6.70;4.38;;;23.00;99.90;;;23.20;100.00;97581.66;5024822;28;20078;-36
2023/08/23 07:34:57;;;;;;;6.72;5.15;;;23.10;99.90;;;23.29;100.00;97586.25;5034302;28;20021;-36
2023/08/23 07:37:22;;;;;;;9.30;5.85;;;23.20;99.90;;;23.43;100.00;97590.47;5024988;28;21672;-36
2023/08/23 07:39:48;;;;;;;6.25;4.40;;;23.30;99.90;;;23.59;100.00;97589.97;5013558;28;20029;-36
2023/08/23 07:42:14;;;;;;;8.25;4.50;;;23.40;99.90;;;23.77;100.00;97595.59;5021100;28;20381;-36
2023/08/23 07:44:40;;;;;;;6.90;4.78;;;23.60;99.90;;;23.95;100.00;97594.00;5024406;28;20333;-36
2023/08/23 07:47:05;;;;;;;8.55;4.60;;;23.80;99.90;;;24.09;100.00;97597.31;5024279;28;20030;-36
2023/08/23 07:49:31;;;;;;;7.22;4.90;;;23.90;99.90;;;24.15;100.00;97592.22;5025898;28;20092;-36
2023/08/23 07:51:57;;;;;;;6.72;4.60;;;23.90;99.90;;;24.24;99.54;97593.25;5035725;28;20056;-36
2023/08/23 07:54:22;;;;;;;9.57;5.10;;;24.00;99.90;;;24.33;99.12;97589.72;5024963;28;20576;-36
2023/08/23 07:56:48;;;;;;;6.38;4.78;;;24.10;99.90;;;24.44;98.19;97586.03;5026442;28;20198;-36
2023/08/23 07:59:14;;;;;;;6.35;4.85;;;24.30;99.90;;;24.55;97.36;97585.97;5029111;28;20044;-36
2023/08/23 08:01:40;;;;;;;6.90;4.97;;;24.30;99.90;;;24.67;94.79;97585.81;5031788;28;20032;-36
2023/08/23 08:04:05;;;;;;;9.65;5.80;;;24.50;99.90;;;24.63;94.23;97581.72;5026679;28;20068;-36
2023/08/23 08:06:31;;;;;;;4.90;4.40;;;24.50;99.90;;;24.81;94.60;97589.97;5026050;28;20048;-36
2023/08/23 08:08:56;;;;;;;7.10;5.35;;;24.60;99.90;;;24.94;94.23;97593.22;5031727;28;20196;-36
2023/08/23 08:11:22;;;;;;;7.55;4.35;;;24.70;99.90;;;25.09;95.35;97588.25;5036758;28;20033;-36
2023/08/23 08:13:48;;;;;;;5.93;4.57;;;24.90;99.90;;;25.25;91.18;97599.34;5033135;28;20639;-36
2023/08/23 08:16:14;;;;;;;5.70;4.20;;;25.00;99.90;;;25.19;91.65;97591.78;5029158;28;20060;-36
2023/08/23 08:18:42;;;;;;;7.15;4.57;;;25.00;99.90;;;25.10;91.71;97588.09;5032874;28;20021;-36
2023/08/23 08:21:08;;;;;;;5.65;4.60;;;24.90;99.90;;;25.14;92.58;97591.34;5026571;28;20026;-36
2023/08/23 08:23:34;;;;;;;9.45;4.70;;;24.90;99.90;;;25.25;92.55;97598.47;5023950;28;20053;-36
2023/08/23 08:26:00;;;;;;;6.05;4.28;;;25.00;99.90;;;25.29;98.18;97598.06;5036987;28;20456;-36
2023/08/23 08:28:26;;;;;;;7.60;4.18;;;25.10;99.90;;;25.39;96.35;97589.09;5032702;28;20040;-36
2023/08/23 08:30:51;;;;;;;6.28;4.63;;;25.20;99.90;;;25.46;93.11;97595.59;5015432;28;20100;-36
2023/08/23 08:33:17;;;;;;;7.60;4.40;;;25.20;99.90;;;25.49;87.15;97598.03;5020470;28;20036;-36
2023/08/23 08:35:43;;;;;;;5.47;4.90;;;25.30;99.90;;;25.57;88.04;97595.41;5030113;28;20037;-36
2023/08/23 08:38:09;;;;;;;8.23;4.60;;;25.40;99.90;;;25.51;83.23;97596.03;5030694;28;20029;-36
2023/08/23 08:40:39;;;;;;;5.65;4.57;;;25.40;99.90;;;25.53;84.04;97592.16;5029946;28;20458;-36
2023/08/23 08:43:05;;;;;;;8.65;4.85;;;25.30;99.90;;;25.56;86.12;97591.03;5031240;28;20064;-36
2023/08/23 08:45:31;;;;;;;8.80;4.95;;;25.40;99.90;;;25.69;84.31;97596.94;5041462;28;20075;-36
2023/08/23 08:47:58;;;;;;;8.98;5.75;;;25.40;99.90;;;25.69;84.42;97596.94;5038429;28;20064;-36
2023/08/23 08:50:30;;;;;;;5.05;4.45;;;25.50;99.90;;;25.79;84.55;97602.34;5035087;28;20112;-36
2023/08/23 08:53:00;;;;;;;8.40;5.60;;;25.50;99.90;;;25.86;82.96;97599.88;5041084;28;20033;-36
2023/08/23 08:55:27;;;;;;;6.53;4.50;;;25.60;99.90;;;25.95;85.11;97608.97;5036791;28;20037;-36
2023/08/23 08:57:54;;;;;;;6.72;5.00;;;25.70;99.90;;;25.95;80.28;97607.16;5033430;28;20698;-36
2023/08/23 09:00:24;;;;;;;9.65;4.55;;;25.70;99.90;;;25.97;79.85;97605.16;5032172;28;20630;-36
2023/08/23 09:02:53;;;;;;;10.02;5.15;;;25.80;99.90;;;25.94;76.54;97613.53;5027328;28;20664;-36
2023/08/23 09:05:22;;;;;;;6.47;4.72;;;25.80;99.90;;;25.97;75.58;97610.56;5035525;28;20025;-36
2023/08/23 09:07:50;;;;;;;8.27;5.28;;;25.80;99.90;;;25.91;74.96;97606.56;5040224;28;20215;-36
2023/08/23 09:10:16;;;;;;;6.90;4.85;;;25.80;99.90;;;25.95;80.79;97608.97;5038793;28;20033;-36
2023/08/23 09:12:42;;;;;;;6.22;4.45;;;25.70;99.90;;;26.03;81.92;97611.81;5030073;28;20041;-36
2023/08/23 09:15:08;;;;;;;11.07;4.75;;;25.80;99.90;;;26.02;78.79;97608.25;5029813;28;20111;-36
2023/08/23 09:17:35;;;;;;;7.85;4.47;;;25.80;99.90;;;26.13;80.78;97615.31;5027243;28;20116;-36
2023/08/23 09:20:08;;;;;;;6.15;4.38;;;26.00;99.90;;;26.26;79.59;97610.41;5026687;28;20056;-36
2023/08/23 09:22:35;;;;;;;5.63;4.32;;;26.00;99.90;;;26.40;73.51;97619.88;5033025;28;20579;-36
2023/08/23 09:25:03;;;;;;;6.60;4.63;;;26.20;99.90;;;26.40;72.97;97622.56;5026252;28;20542;-36
2023/08/23 09:27:29;;;;;;;7.68;4.63;;;26.20;99.90;;;26.43;72.30;97616.88;5027854;28;20381;-36
2023/08/23 09:29:58;;;;;;;5.88;4.05;;;26.30;99.90;;;26.58;71.80;97621.75;5032718;28;20037;-36
2023/08/23 09:32:25;;;;;;;6.15;4.60;;;26.30;99.90;;;26.60;71.18;97611.63;5025061;28;20448;-36
2023/08/23 09:34:51;;;;;;;5.07;4.00;;;26.40;99.90;;;26.64;68.73;97613.91;5028816;28;20136;-36
2023/08/23 09:37:18;;;;;;;5.35;4.10;;;26.40;99.90;;;26.68;69.49;97606.34;5030164;28;20044;-36
2023/08/23 09:39:44;;;;;;;10.13;4.68;;;26.50;99.90;;;26.62;65.36;97604.25;5029272;28;20033;-36
2023/08/23 09:42:14;;;;;;;8.85;4.22;;;26.50;99.90;;;26.60;66.26;97611.63;5034169;28;20495;-36
2023/08/23 09:44:43;;;;;;;4.68;4.28;;;26.40;99.90;;;26.62;66.60;97607.81;5030080;28;20025;-36
2023/08/23 09:47:21;;;;;;;7.05;4.15;;;26.40;99.90;;;26.71;68.04;97608.75;5033993;28;20032;-36
2023/08/23 09:49:51;;;;;;;6.20;3.90;;;26.50;99.90;;;26.78;66.84;97599.00;5036745;28;20112;-36
2023/08/23 09:52:17;;;;;;;6.70;4.28;;;26.50;99.90;;;26.81;63.15;97587.88;5034722;28;20114;-36
2023/08/23 09:55:01;;;;;;;6.30;4.40;;;26.60;99.90;;;26.83;65.10;97593.16;5031056;28;20033;-36
2023/08/23 09:57:26;;;;;;;6.80;5.07;;;26.60;99.90;;;26.70;64.55;97581.84;5029235;28;20064;-36
2023/08/23 09:59:53;;;;;;;6.80;4.65;;;26.50;99.90;;;26.65;66.71;97574.19;5032586;28;20059;-36
2023/08/23 10:02:19;;;;;;;10.23;4.40;;;26.50;99.90;;;26.76;67.59;97584.78;5029907;28;20031;-36
2023/08/23 10:04:45;;;;;;;7.88;4.18;;;26.60;99.90;;;26.85;71.28;97581.16;5036598;28;20025;-36
2023/08/23 10:07:15;;;;;;;8.60;4.15;;;26.60;99.90;;;27.03;65.34;97578.44;5030504;28;20084;-36
2023/08/23 10:09:41;;;;;;;6.28;5.32;;;26.80;99.90;;;27.05;63.15;97573.72;5029147;28;20021;-36
2023/08/23 10:12:09;;;;;;;7.88;4.30;;;26.90;99.90;;;27.08;66.03;97596.03;5033730;28;20036;-36